createdAt,value
2022-10-14T00:01:16.943Z,97135.75
2022-10-14T00:03:43.633Z,97130.34
2022-10-14T00:06:16.739Z,97129.75
2022-10-14T00:08:44.375Z,97135.75
2022-10-14T00:11:22.835Z,97127.72
2022-10-14T00:13:50.263Z,97122.53
2022-10-14T00:16:22.620Z,97129.75
2022-10-14T00:18:49.872Z,97122.91
2022-10-14T00:21:16.976Z,97127.31
2022-10-14T00:23:44.289Z,97121.81
2022-10-14T00:26:23.235Z,97126.16
2022-10-14T00:28:51.320Z,97126.25
2022-10-14T00:31:18.509Z,97126.16
2022-10-14T00:33:47.682Z,97121.81
2022-10-14T00:36:16.981Z,97129.94
2022-10-14T00:38:45.320Z,97125.63
2022-10-14T00:41:16.718Z,97122.03
2022-10-14T00:43:56.883Z,97113.06
2022-10-14T00:46:26.017Z,97113.06
2022-10-14T00:49:01.676Z,97115.06
2022-10-14T00:51:28.747Z,97111.56
2022-10-14T00:53:55.842Z,97106.19
2022-10-14T00:56:27.288Z,97112.22
2022-10-14T00:58:55.027Z,97116.75
2022-10-14T01:01:21.662Z,97112.09
2022-10-14T01:03:48.627Z,97112.81
2022-10-14T01:06:22.878Z,97110.91
2022-10-14T01:09:00.267Z,97106.81
2022-10-14T01:12:00.139Z,97106.81
2022-10-14T01:15:04.863Z,97103.94
2022-10-14T01:17:38.956Z,97108.25
2022-10-14T01:20:43.141Z,97108.25
2022-10-14T01:23:12.371Z,97105.72
2022-10-14T01:26:12.898Z,97099.47
2022-10-14T01:29:02.183Z,97102.25
2022-10-14T01:31:34.339Z,97097.59
2022-10-14T01:34:05.121Z,97097.38
2022-10-14T01:36:44.926Z,97093.16
2022-10-14T01:39:28.653Z,97086.28
2022-10-14T01:42:09.350Z,97076.53
2022-10-14T01:44:41.746Z,97068.63
2022-10-14T01:47:12.197Z,97068.63
2022-10-14T01:49:49.835Z,97059.72
2022-10-14T01:52:24.758Z,97051.47
2022-10-14T01:54:54.413Z,97057.72
2022-10-14T01:57:27.689Z,97054.13
2022-10-14T01:59:55.732Z,97059.41
2022-10-14T02:02:24.452Z,97051.47
2022-10-14T02:04:52.138Z,97046.19
2022-10-14T02:07:28.049Z,97036.81
2022-10-14T02:10:01.834Z,97040.63
2022-10-14T02:12:56.758Z,97025.38
2022-10-14T02:15:29.335Z,97031.75
2022-10-14T02:18:10.718Z,97033.09
2022-10-14T02:20:42.598Z,97022.41
2022-10-14T02:23:16.089Z,97023.38
2022-10-14T02:25:46.056Z,97021.44
2022-10-14T02:28:18.182Z,97017.00
2022-10-14T02:30:54.310Z,97018.81
2022-10-14T02:33:24.632Z,97003.06
2022-10-14T02:35:53.164Z,97013.41
2022-10-14T02:38:21.000Z,97011.97
2022-10-14T02:40:50.690Z,97003.91
2022-10-14T02:43:18.154Z,97002.94
2022-10-14T02:45:44.967Z,96996.94
2022-10-14T02:48:12.058Z,96995.13
2022-10-14T02:50:38.868Z,96995.25
2022-10-14T02:53:05.533Z,96992.50
2022-10-14T02:55:32.140Z,96992.75
2022-10-14T02:57:59.445Z,97000.75
2022-10-14T03:00:26.570Z,96999.19
2022-10-14T03:02:54.451Z,96998.34
2022-10-14T03:05:21.446Z,96987.06
2022-10-14T03:07:48.024Z,96989.59
2022-10-14T03:10:17.595Z,96986.94
2022-10-14T03:12:44.545Z,96980.09
2022-10-14T03:15:19.833Z,96982.00
2022-10-14T03:17:47.003Z,96982.88
2022-10-14T03:20:16.811Z,96980.56
2022-10-14T03:22:48.260Z,96981.53
2022-10-14T03:25:16.328Z,96979.00
2022-10-14T03:27:52.474Z,96981.66
2022-10-14T03:30:22.831Z,96979.84
2022-10-14T03:33:01.689Z,96981.28
2022-10-14T03:35:48.658Z,96983.72
2022-10-14T03:38:18.898Z,96986.34
2022-10-14T03:40:46.979Z,96986.22
2022-10-14T03:43:14.286Z,96984.31
2022-10-14T03:45:57.402Z,96978.78
2022-10-14T03:48:25.229Z,96980.25
2022-10-14T03:50:55.906Z,96978.31
2022-10-14T03:53:23.738Z,96979.41
2022-10-14T03:55:50.506Z,96975.69
2022-10-14T03:58:17.146Z,96977.47
2022-10-14T04:00:49.570Z,96983.47
2022-10-14T04:03:39.071Z,96976.66
2022-10-14T04:06:05.824Z,96974.72
2022-10-14T04:08:32.507Z,96972.91
2022-10-14T04:11:09.047Z,96977.28
2022-10-14T04:13:38.854Z,96969.69
2022-10-14T04:16:10.441Z,96962.59
2022-10-14T04:18:54.330Z,96953.56
2022-10-14T04:21:22.336Z,96950.09
2022-10-14T04:23:51.432Z,96942.16
2022-10-14T04:26:21.631Z,96943.00
2022-10-14T04:28:48.336Z,96938.56
2022-10-14T04:31:29.144Z,96945.44
2022-10-14T04:34:00.760Z,96944.50
2022-10-14T04:36:33.206Z,96940.28
2022-10-14T04:39:01.924Z,96932.34
2022-10-14T04:41:28.662Z,96931.59
2022-10-14T04:43:57.658Z,96932.34
2022-10-14T04:46:44.460Z,96926.31
2022-10-14T04:49:12.729Z,96926.19
2022-10-14T04:51:48.451Z,96929.56
2022-10-14T04:54:19.949Z,96922.41
2022-10-14T04:56:52.897Z,96923.25
2022-10-14T04:59:19.663Z,96928.41
2022-10-14T05:02:10.001Z,96931.75
2022-10-14T05:04:46.046Z,96934.41
2022-10-14T05:07:13.030Z,96918.66
2022-10-14T05:09:43.099Z,96924.22
2022-10-14T05:12:22.702Z,96911.00
2022-10-14T05:14:55.117Z,96911.00
2022-10-14T05:17:33.004Z,96903.91
2022-10-14T05:20:00.456Z,96898.63
2022-10-14T05:22:27.676Z,96910.03
2022-10-14T05:24:54.529Z,96908.56
2022-10-14T05:27:21.156Z,96902.53
2022-10-14T05:29:48.922Z,96907.09
2022-10-14T05:32:16.224Z,96903.50
2022-10-14T05:34:45.581Z,96911.53
2022-10-14T05:37:23.610Z,96907.44
2022-10-14T05:39:52.509Z,96904.34
2022-10-14T05:42:23.185Z,96905.16
2022-10-14T05:44:52.890Z,96904.13
2022-10-14T05:47:19.706Z,96902.22
2022-10-14T05:49:48.891Z,96897.78
2022-10-14T05:52:17.119Z,96895.13
2022-10-14T05:54:44.322Z,96894.16
2022-10-14T05:57:14.235Z,96895.00
2022-10-14T05:59:40.840Z,96893.91
2022-10-14T06:02:08.698Z,96897.06
2022-10-14T06:04:35.525Z,96891.53
2022-10-14T06:07:03.843Z,96884.31
2022-10-14T06:09:31.222Z,96886.47
2022-10-14T06:11:57.835Z,96890.09
2022-10-14T06:14:24.513Z,96891.63
2022-10-14T06:16:52.048Z,96892.47
2022-10-14T06:19:18.683Z,96901.63
2022-10-14T06:21:45.341Z,96898.13
2022-10-14T06:24:12.081Z,96897.78
2022-10-14T06:26:38.732Z,96897.16
2022-10-14T06:29:05.374Z,96898.34
2022-10-14T06:31:32.605Z,96886.44
2022-10-14T06:33:59.645Z,96882.50
2022-10-14T06:36:26.741Z,96878.50
2022-10-14T06:38:53.315Z,96885.22
2022-10-14T06:41:19.866Z,96881.84
2022-10-14T06:43:46.424Z,96872.63
2022-10-14T06:46:13.053Z,96870.72
2022-10-14T06:48:39.681Z,96869.50
2022-10-14T06:51:06.533Z,96862.91
2022-10-14T06:53:33.184Z,96862.78
2022-10-14T06:56:05.997Z,96856.88
2022-10-14T06:58:33.627Z,96853.03
2022-10-14T07:01:05.304Z,96855.59
2022-10-14T07:03:34.241Z,96848.94
2022-10-14T07:06:03.816Z,96847.75
2022-10-14T07:08:30.520Z,96842.06
2022-10-14T07:10:57.101Z,96852.41
2022-10-14T07:13:24.031Z,96853.38
2022-10-14T07:15:51.956Z,96849.84
2022-10-14T07:18:19.110Z,96858.53
2022-10-14T07:20:45.959Z,96858.91
2022-10-14T07:23:12.700Z,96860.09
2022-10-14T07:25:39.470Z,96861.75
2022-10-14T07:28:06.349Z,96855.25
2022-10-14T07:30:33.002Z,96859.31
2022-10-14T07:32:59.727Z,96852.09
2022-10-14T07:35:29.469Z,96854.22
2022-10-14T07:37:58.136Z,96848.38
2022-10-14T07:40:25.061Z,96845.25
2022-10-14T07:42:51.658Z,96858.47
2022-10-14T07:45:20.853Z,96859.59
2022-10-14T07:47:49.382Z,96849.44
2022-10-14T07:50:16.130Z,96857.09
2022-10-14T07:52:42.942Z,96870.31
2022-10-14T07:55:09.591Z,96860.09
2022-10-14T07:57:36.151Z,96854.88
2022-10-14T08:00:04.086Z,96863.72
2022-10-14T08:02:38.684Z,96861.13
2022-10-14T08:05:32.858Z,96866.50
2022-10-14T08:07:52.241Z,96865.44
2022-10-14T08:10:19.045Z,96853.72
2022-10-14T08:12:46.277Z,96854.72
2022-10-14T08:15:12.868Z,96858.94
2022-10-14T08:17:39.435Z,96855.63
2022-10-14T08:20:06.640Z,96854.38
2022-10-14T08:22:33.355Z,96849.56
2022-10-14T08:24:59.911Z,96847.63
2022-10-14T08:27:26.775Z,96843.03
2022-10-14T08:29:54.475Z,96850.81
2022-10-14T08:32:21.410Z,96849.56
2022-10-14T08:34:48.161Z,96846.75
2022-10-14T08:37:14.872Z,96847.81
2022-10-14T08:39:41.451Z,96849.63
2022-10-14T08:42:30.730Z,96846.75
2022-10-14T08:45:03.169Z,96833.81
2022-10-14T08:47:39.081Z,96840.13
2022-10-14T08:50:14.759Z,96831.09
2022-10-14T08:52:48.367Z,96832.78
2022-10-14T08:55:30.433Z,96838.72
2022-10-14T08:58:05.031Z,96834.75
2022-10-14T09:00:35.447Z,96826.13
2022-10-14T09:03:10.344Z,96816.34
2022-10-14T09:05:39.190Z,96819.13
2022-10-14T09:08:08.203Z,96823.19
2022-10-14T09:10:39.634Z,96812.19
2022-10-14T09:13:32.349Z,96809.25
2022-10-14T09:16:06.125Z,96813.84
2022-10-14T09:18:38.555Z,96808.84
2022-10-14T09:24:21.327Z,96798.34
2022-10-14T09:26:50.864Z,96799.47
2022-10-14T09:29:38.712Z,96791.69
2022-10-14T09:32:08.866Z,96787.34
2022-10-14T09:34:39.801Z,96785.72
2022-10-14T09:37:22.907Z,96784.44
2022-10-14T09:39:50.736Z,96787.94
2022-10-14T09:42:26.182Z,96778.09
2022-10-14T09:48:07.124Z,96783.41
2022-10-14T09:50:40.066Z,96782.06
2022-10-14T09:53:17.845Z,96778.81
2022-10-14T09:56:06.193Z,96785.50
2022-10-14T09:58:41.202Z,96786.03
2022-10-14T10:01:15.790Z,96782.56
2022-10-14T10:03:43.778Z,96781.09
2022-10-14T10:06:12.958Z,96787.81
2022-10-14T10:09:00.282Z,96764.13
2022-10-14T10:11:40.056Z,96768.06
2022-10-14T10:14:19.698Z,96774.44
2022-10-14T10:16:46.292Z,96769.66
2022-10-14T10:19:32.112Z,96779.88
2022-10-14T10:24:58.631Z,96781.97
2022-10-14T10:27:27.547Z,96768.13
2022-10-14T10:29:57.502Z,96774.22
2022-10-14T10:32:31.043Z,96760.84
2022-10-14T10:35:10.587Z,96755.03
2022-10-14T10:37:58.169Z,96749.50
2022-10-14T10:40:34.508Z,96752.16
2022-10-14T10:43:28.949Z,96744.22
2022-10-14T10:46:07.547Z,96736.53
2022-10-14T10:49:01.575Z,96730.50
2022-10-14T10:52:00.485Z,96738.75
2022-10-14T10:54:39.007Z,96735.25
2022-10-14T10:57:17.854Z,96745.75
2022-10-14T11:00:03.511Z,96733.75
2022-10-14T11:02:59.138Z,96736.22
2022-10-14T11:05:43.722Z,96736.22
2022-10-14T11:09:00.649Z,96729.75
2022-10-14T11:12:10.292Z,96724.56
2022-10-14T11:14:46.293Z,96709.63
2022-10-14T11:18:00.468Z,96712.88
2022-10-14T11:20:37.118Z,96717.88
2022-10-14T11:23:13.782Z,96706.59
2022-10-14T11:26:04.092Z,96709.94
2022-10-14T11:28:48.746Z,96697.81
2022-10-14T11:31:27.900Z,96696.13
2022-10-14T11:34:12.664Z,96693.06
2022-10-14T11:37:06.967Z,96688.88
2022-10-14T11:39:50.186Z,96693.25
2022-10-14T11:42:47.329Z,96684.97
2022-10-14T11:45:20.273Z,96687.19
2022-10-14T11:48:04.575Z,96683.59
2022-10-14T11:50:40.301Z,96683.16
2022-10-14T11:53:20.162Z,96682.19
2022-10-14T11:55:57.884Z,96687.63
2022-10-14T11:58:27.276Z,96679.69
2022-10-14T12:00:56.099Z,96673.63
2022-10-14T12:03:50.606Z,96674.47
2022-10-14T12:06:26.310Z,96670.03
2022-10-14T12:09:09.019Z,96670.44
2022-10-14T12:11:43.255Z,96668.22
2022-10-14T12:14:24.991Z,96660.81
2022-10-14T12:16:53.109Z,96665.84
2022-10-14T12:19:25.601Z,96659.13
2022-10-14T12:21:58.065Z,96664.84
2022-10-14T12:24:36.842Z,96655.91
2022-10-14T12:27:05.725Z,96654.38
2022-10-14T12:29:46.767Z,96662.75
2022-10-14T12:32:16.284Z,96668.47
2022-10-14T12:34:44.073Z,96668.03
2022-10-14T12:37:31.623Z,96661.34
2022-10-14T12:40:07.213Z,96663.31
2022-10-14T12:42:53.717Z,96659.09
2022-10-14T12:45:23.270Z,96651.28
2022-10-14T12:48:16.549Z,96651.44
2022-10-14T12:50:44.406Z,96646.53
2022-10-14T12:53:27.938Z,96643.19
2022-10-14T12:55:57.539Z,96634.56
2022-10-14T12:58:28.915Z,96637.94
2022-10-14T13:01:01.048Z,96624.53
2022-10-14T13:03:32.764Z,96624.53
2022-10-14T13:06:29.355Z,96611.41
2022-10-14T13:09:15.306Z,96609.84
2022-10-14T13:12:05.139Z,96608.75
2022-10-14T13:14:52.718Z,96600.22
2022-10-14T13:17:45.370Z,96592.22
2022-10-14T13:20:35.127Z,96584.13
2022-10-14T13:23:30.060Z,96596.84
2022-10-14T13:26:11.382Z,96592.13
2022-10-14T13:29:17.538Z,96595.19
2022-10-14T13:32:17.185Z,96596.19
2022-10-14T13:35:09.775Z,96591.28
2022-10-14T13:37:43.434Z,96590.16
2022-10-14T13:40:23.888Z,96591.69
2022-10-14T13:42:54.936Z,96592.22
2022-10-14T13:45:36.991Z,96592.13
2022-10-14T13:48:09.944Z,96596.19
2022-10-14T13:50:38.278Z,96594.38
2022-10-14T13:53:12.736Z,96589.47
2022-10-14T13:55:44.611Z,96594.66
2022-10-14T13:58:18.596Z,96589.19
2022-10-14T14:00:58.015Z,96586.56
2022-10-14T14:03:29.318Z,96592.56
2022-10-14T14:05:57.743Z,96584.59
2022-10-14T14:08:42.241Z,96587.97
2022-10-14T14:11:18.186Z,96574.00
2022-10-14T14:14:03.395Z,96571.50
2022-10-14T14:16:36.641Z,96569.81
2022-10-14T14:19:08.850Z,96561.13
2022-10-14T14:21:37.090Z,96562.69
2022-10-14T14:24:15.316Z,96562.00
2022-10-14T14:26:48.244Z,96557.94
2022-10-14T14:29:20.242Z,96554.16
2022-10-14T14:32:06.099Z,96548.97
2022-10-14T14:34:35.931Z,96557.38
2022-10-14T14:37:17.583Z,96549.81
2022-10-14T14:40:20.305Z,96550.66
2022-10-14T14:42:50.799Z,96544.06
2022-10-14T14:45:30.813Z,96553.00
2022-10-14T14:48:02.080Z,96552.72
2022-10-14T14:50:33.721Z,96553.53
2022-10-14T14:53:21.356Z,96551.34
2022-10-14T14:56:10.349Z,96572.28
2022-10-14T14:58:50.382Z,96569.63
2022-10-14T15:01:24.700Z,96555.22
2022-10-14T15:04:13.041Z,96561.97
2022-10-14T15:07:01.947Z,96562.19
2022-10-14T15:09:48.697Z,96542.09
2022-10-14T15:12:18.307Z,96533.56
2022-10-14T15:14:47.903Z,96531.72
2022-10-14T15:17:29.370Z,96542.19
2022-10-14T15:20:18.900Z,96532.69
2022-10-14T15:22:47.111Z,96547.53
2022-10-14T15:25:29.305Z,96544.72
2022-10-14T15:28:00.601Z,96539.97
2022-10-14T15:30:27.408Z,96537.72
2022-10-14T15:33:17.328Z,96528.38
2022-10-14T15:35:45.594Z,96523.06
2022-10-14T15:38:18.177Z,96508.97
2022-10-14T15:40:48.538Z,96518.19
2022-10-14T15:43:24.987Z,96522.81
2022-10-14T15:46:15.287Z,96523.78
2022-10-14T15:48:48.174Z,96505.22
2022-10-14T15:51:17.988Z,96512.34
2022-10-14T15:53:44.539Z,96508.00
2022-10-14T15:56:11.313Z,96502.16
2022-10-14T15:58:38.157Z,96495.84
2022-10-14T16:01:06.545Z,96496.31
2022-10-14T16:03:37.272Z,96494.06
2022-10-14T16:06:10.174Z,96492.41
2022-10-14T16:08:38.718Z,96482.09
2022-10-14T16:11:20.763Z,96489.38
2022-10-14T16:13:47.350Z,96486.03
2022-10-14T16:16:15.754Z,96486.59
2022-10-14T16:18:42.304Z,96486.84
2022-10-14T16:21:15.465Z,96484.09
2022-10-14T16:23:43.378Z,96488.81
2022-10-14T16:26:10.457Z,96488.00
2022-10-14T16:28:37.126Z,96488.44
2022-10-14T16:31:03.768Z,96486.19
2022-10-14T16:33:30.403Z,96488.03
2022-10-14T16:35:57.264Z,96488.84
2022-10-14T16:38:24.321Z,96489.84
2022-10-14T16:40:55.766Z,96484.81
2022-10-14T16:43:22.467Z,96487.47
2022-10-14T16:45:49.053Z,96475.47
2022-10-14T16:48:17.408Z,96493.88
2022-10-14T16:50:43.995Z,96490.53
2022-10-14T16:53:29.891Z,96496.00
2022-10-14T16:55:58.458Z,96487.19
2022-10-14T16:58:30.024Z,96502.41
2022-10-14T17:01:02.544Z,96495.44
2022-10-14T17:03:30.909Z,96482.47
2022-10-14T17:05:59.024Z,96486.38
2022-10-14T17:08:26.039Z,96477.03
2022-10-14T17:10:58.965Z,96475.34
2022-10-14T17:13:26.029Z,96473.69
2022-10-14T17:16:06.435Z,96489.59
2022-10-14T17:18:35.159Z,96500.88
2022-10-14T17:21:04.594Z,96504.38
2022-10-14T17:23:31.411Z,96508.97
2022-10-14T17:25:58.331Z,96507.03
2022-10-14T17:28:25.561Z,96499.50
2022-10-14T17:30:52.729Z,96491.13
2022-10-14T17:33:19.718Z,96493.78
2022-10-14T17:35:46.292Z,96499.66
2022-10-14T17:38:12.869Z,96501.56
2022-10-14T17:40:39.617Z,96497.41
2022-10-14T17:43:06.342Z,96492.25
2022-10-14T17:45:32.941Z,96485.13
2022-10-14T17:47:59.518Z,96497.56
2022-10-14T17:50:27.122Z,96502.03
2022-10-14T17:52:58.709Z,96507.47
2022-10-14T17:55:25.549Z,96501.31
2022-10-14T17:57:52.149Z,96495.44
2022-10-14T18:00:18.757Z,96497.25
2022-10-14T18:02:45.399Z,96499.78
2022-10-14T18:05:13.690Z,96500.22
2022-10-14T18:07:40.251Z,96503.69
2022-10-14T18:10:07.129Z,96500.91
2022-10-14T18:12:33.722Z,96500.06
2022-10-14T18:15:01.651Z,96494.06
2022-10-14T18:17:28.320Z,96497.69
2022-10-14T18:19:54.907Z,96495.88
2022-10-14T18:22:21.523Z,96495.59
2022-10-14T18:24:48.316Z,96487.06
2022-10-14T18:27:15.046Z,96488.88
2022-10-14T18:29:42.238Z,96484.56
2022-10-14T18:32:08.855Z,96473.81
2022-10-14T18:34:35.460Z,96470.78
2022-10-14T18:37:02.130Z,96469.81
2022-10-14T18:39:28.830Z,96467.56
2022-10-14T18:41:55.381Z,96459.06
2022-10-14T18:44:21.980Z,96461.72
2022-10-14T18:46:48.634Z,96457.25
2022-10-14T18:49:15.336Z,96459.75
2022-10-14T18:51:43.324Z,96460.59
2022-10-14T18:54:19.581Z,96453.63
2022-10-14T18:56:46.986Z,96447.34
2022-10-14T18:59:19.741Z,96446.66
2022-10-14T19:01:48.064Z,96444.00
2022-10-14T19:04:15.740Z,96444.28
2022-10-14T19:06:45.910Z,96438.31
2022-10-14T19:09:13.860Z,96443.31
2022-10-14T19:11:41.526Z,96441.50
2022-10-14T19:14:09.809Z,96444.44
2022-10-14T19:16:38.184Z,96442.34
2022-10-14T19:19:11.895Z,96443.31
2022-10-14T19:21:39.538Z,96445.13
2022-10-14T19:24:08.381Z,96437.31
2022-10-14T19:26:37.545Z,96435.66
2022-10-14T19:29:07.793Z,96429.50
2022-10-14T19:31:38.205Z,96425.06
2022-10-14T19:34:06.628Z,96417.94
2022-10-14T19:36:34.736Z,96420.03
2022-10-14T19:39:01.445Z,96427.13
2022-10-14T19:41:30.763Z,96417.66
2022-10-14T19:43:59.063Z,96408.31
2022-10-14T19:46:27.990Z,96411.78
2022-10-14T19:48:56.830Z,96415.16
2022-10-14T19:51:23.961Z,96407.31
2022-10-14T19:53:50.781Z,96407.22
2022-10-14T19:56:17.680Z,96398.56
2022-10-14T19:58:45.008Z,96404.78
2022-10-14T20:01:17.029Z,96414.69
2022-10-14T20:03:44.315Z,96405.78
2022-10-14T20:06:12.955Z,96402.28
2022-10-14T20:08:39.749Z,96401.59
2022-10-14T20:11:10.170Z,96399.66
2022-10-14T20:13:38.048Z,96399.78
2022-10-14T20:16:06.833Z,96394.34
2022-10-14T20:18:34.730Z,96392.81
2022-10-14T20:21:03.184Z,96387.53
2022-10-14T20:23:30.139Z,96383.22
2022-10-14T20:26:01.164Z,96387.38
2022-10-14T20:28:28.729Z,96377.78
2022-10-14T20:30:55.979Z,96376.25
2022-10-14T20:33:23.516Z,96376.94
2022-10-14T20:36:01.829Z,96375.97
2022-10-14T20:38:28.506Z,96367.19
2022-10-14T20:40:55.490Z,96368.00
2022-10-14T20:43:22.143Z,96367.31
2022-10-14T20:45:48.698Z,96377.09
2022-10-14T20:48:15.286Z,96372.75
2022-10-14T20:50:42.512Z,96373.47
2022-10-14T20:53:09.173Z,96368.16
2022-10-14T20:55:37.017Z,96371.91
2022-10-14T20:58:03.777Z,96363.13
2022-10-14T21:00:30.352Z,96365.66
2022-10-14T21:02:57.060Z,96366.34
2022-10-14T21:05:23.644Z,96361.19
2022-10-14T21:07:52.243Z,96362.03
2022-10-14T21:10:19.438Z,96363.00
2022-10-14T21:12:48.680Z,96362.19
2022-10-14T21:15:15.822Z,96358.66
2022-10-14T21:17:47.811Z,96362.28
2022-10-14T21:20:14.855Z,96354.22
2022-10-14T21:22:41.535Z,96352.69
2022-10-14T21:25:08.219Z,96347.38
2022-10-14T21:27:34.797Z,96345.56
2022-10-14T21:30:01.495Z,96346.41
2022-10-14T21:32:28.079Z,96347.22
2022-10-14T21:34:54.692Z,96326.06
2022-10-14T21:37:21.649Z,96325.50
2022-10-14T21:39:48.270Z,96329.97
2022-10-14T21:42:15.023Z,96323.56
2022-10-14T21:44:41.621Z,96318.41
2022-10-14T21:47:08.204Z,96309.63
2022-10-14T21:49:34.775Z,96307.13
2022-10-14T21:52:01.380Z,96294.28
2022-10-14T21:54:27.994Z,96292.09
2022-10-14T21:59:26.216Z,96297.53
2022-10-14T22:01:56.458Z,96302.00
2022-10-14T22:04:23.141Z,96306.31
2022-10-14T22:06:49.686Z,96303.66
2022-10-14T22:09:16.303Z,96299.06
2022-10-14T22:11:42.928Z,96306.31
2022-10-14T22:14:14.155Z,96305.88
2022-10-14T22:16:40.881Z,96301.84
2022-10-14T22:19:07.908Z,96290.97
2022-10-14T22:21:36.670Z,96292.63
2022-10-14T22:24:04.208Z,96285.53
2022-10-14T22:26:31.432Z,96286.50
2022-10-14T22:29:05.222Z,96279.25
2022-10-14T22:31:33.240Z,96285.53
2022-10-14T22:34:01.492Z,96277.59
2022-10-14T22:36:29.449Z,96277.44
2022-10-14T22:38:57.687Z,96277.16
2022-10-14T22:41:25.403Z,96271.88
2022-10-14T22:43:57.087Z,96263.78
2022-10-14T22:46:27.771Z,96267.72
2022-10-14T22:48:58.577Z,96261.56
2022-10-14T22:53:59.597Z,96266.44
2022-10-14T22:56:27.758Z,96277.03
2022-10-14T22:59:03.541Z,96265.47
2022-10-14T23:01:30.692Z,96263.66
2022-10-14T23:03:58.430Z,96267.28
2022-10-14T23:06:25.381Z,96261.16
2022-10-14T23:08:51.962Z,96262.00
2022-10-14T23:11:20.912Z,96254.75
2022-10-14T23:13:47.703Z,96246.78
2022-10-14T23:16:17.441Z,96248.31
2022-10-14T23:18:45.091Z,96250.28
2022-10-14T23:21:24.570Z,96251.41
2022-10-14T23:23:52.477Z,96250.56
2022-10-14T23:26:21.627Z,96259.34
2022-10-14T23:28:49.844Z,96252.25
2022-10-14T23:31:18.899Z,96247.63
2022-10-14T23:33:46.011Z,96256.69
2022-10-14T23:36:13.607Z,96255.56
2022-10-14T23:38:40.642Z,96252.91
2022-10-14T23:41:08.786Z,96270.22
2022-10-14T23:43:35.940Z,96275.66
2022-10-14T23:46:03.942Z,96277.59
2022-10-14T23:48:30.618Z,96274.09
2022-10-14T23:50:57.288Z,96265.19
2022-10-14T23:53:26.441Z,96267.41
2022-10-14T23:55:54.597Z,96255.69
2022-10-14T23:58:21.773Z,96251.91
